sensor_id;sensor_type;location;lat;lon;timestamp;temperature;humidity
78696;SHT31;68030;51.980;5.646;2023-05-07T00:01:43;18.7;66.2
78696;SHT31;68030;51.980;5.646;2023-05-07T00:04:13;18.7;66.3
78696;SHT31;68030;51.980;5.646;2023-05-07T00:06:42;18.6;66.2
78696;SHT31;68030;51.980;5.646;2023-05-07T00:09:12;18.6;66.2
78696;SHT31;68030;51.980;5.646;2023-05-07T00:11:44;18.6;66.2
78696;SHT31;68030;51.980;5.646;2023-05-07T00:14:13;18.6;66.2
78696;SHT31;68030;51.980;5.646;2023-05-07T00:16:43;18.6;65.9
78696;SHT31;68030;51.980;5.646;2023-05-07T00:19:13;18.6;66.1
78696;SHT31;68030;51.980;5.646;2023-05-07T00:21:42;18.6;66.0
78696;SHT31;68030;51.980;5.646;2023-05-07T00:24:12;18.6;66.0
78696;SHT31;68030;51.980;5.646;2023-05-07T00:26:42;18.6;65.9
78696;SHT31;68030;51.980;5.646;2023-05-07T00:29:11;18.6;66.1
78696;SHT31;68030;51.980;5.646;2023-05-07T00:31:41;18.6;66.0
78696;SHT31;68030;51.980;5.646;2023-05-07T00:34:12;18.5;66.3
78696;SHT31;68030;51.980;5.646;2023-05-07T00:36:42;18.5;66.2
78696;SHT31;68030;51.980;5.646;2023-05-07T00:39:12;18.5;66.2
78696;SHT31;68030;51.980;5.646;2023-05-07T00:41:42;18.5;66.2
78696;SHT31;68030;51.980;5.646;2023-05-07T00:44:12;18.5;66.0
78696;SHT31;68030;51.980;5.646;2023-05-07T00:46:44;18.4;66.3
78696;SHT31;68030;51.980;5.646;2023-05-07T00:49:18;18.4;66.2
78696;SHT31;68030;51.980;5.646;2023-05-07T00:51:50;18.4;66.7
78696;SHT31;68030;51.980;5.646;2023-05-07T00:54:22;18.4;66.7
78696;SHT31;68030;51.980;5.646;2023-05-07T00:56:54;18.3;66.4
78696;SHT31;68030;51.980;5.646;2023-05-07T00:59:24;18.3;66.5
78696;SHT31;68030;51.980;5.646;2023-05-07T01:01:54;18.3;66.7
78696;SHT31;68030;51.980;5.646;2023-05-07T01:04:24;18.3;66.9
78696;SHT31;68030;51.980;5.646;2023-05-07T01:06:55;18.3;66.9
78696;SHT31;68030;51.980;5.646;2023-05-07T01:09:27;18.3;66.6
78696;SHT31;68030;51.980;5.646;2023-05-07T01:11:58;18.3;67.1
78696;SHT31;68030;51.980;5.646;2023-05-07T01:14:29;18.3;66.8
78696;SHT31;68030;51.980;5.646;2023-05-07T01:17:00;18.3;66.7
78696;SHT31;68030;51.980;5.646;2023-05-07T01:19:31;18.3;66.7
78696;SHT31;68030;51.980;5.646;2023-05-07T01:22:07;18.3;66.6
78696;SHT31;68030;51.980;5.646;2023-05-07T01:24:38;18.3;66.8
78696;SHT31;68030;51.980;5.646;2023-05-07T01:27:07;18.3;66.7
78696;SHT31;68030;51.980;5.646;2023-05-07T01:29:38;18.3;66.5
78696;SHT31;68030;51.980;5.646;2023-05-07T01:32:09;18.3;66.7
78696;SHT31;68030;51.980;5.646;2023-05-07T01:34:40;18.3;66.4
78696;SHT31;68030;51.980;5.646;2023-05-07T01:37:10;18.3;66.4
78696;SHT31;68030;51.980;5.646;2023-05-07T01:39:40;18.3;66.6
78696;SHT31;68030;51.980;5.646;2023-05-07T01:42:11;18.3;66.1
78696;SHT31;68030;51.980;5.646;2023-05-07T01:44:41;18.4;66.5
78696;SHT31;68030;51.980;5.646;2023-05-07T01:47:11;18.4;66.6
78696;SHT31;68030;51.980;5.646;2023-05-07T01:49:42;18.4;66.4
78696;SHT31;68030;51.980;5.646;2023-05-07T01:52:13;18.4;66.4
78696;SHT31;68030;51.980;5.646;2023-05-07T01:54:43;18.4;66.3
78696;SHT31;68030;51.980;5.646;2023-05-07T01:57:14;18.4;65.9
78696;SHT31;68030;51.980;5.646;2023-05-07T01:59:43;18.4;65.7
78696;SHT31;68030;51.980;5.646;2023-05-07T02:02:12;18.4;65.5
78696;SHT31;68030;51.980;5.646;2023-05-07T02:04:42;18.4;65.4
78696;SHT31;68030;51.980;5.646;2023-05-07T02:07:12;18.4;65.2
78696;SHT31;68030;51.980;5.646;2023-05-07T02:09:41;18.4;65.7
78696;SHT31;68030;51.980;5.646;2023-05-07T02:12:11;18.4;65.2
78696;SHT31;68030;51.980;5.646;2023-05-07T02:14:40;18.4;65.3
78696;SHT31;68030;51.980;5.646;2023-05-07T02:17:10;18.5;65.8
78696;SHT31;68030;51.980;5.646;2023-05-07T02:19:40;18.5;65.2
78696;SHT31;68030;51.980;5.646;2023-05-07T02:22:10;18.5;65.2
78696;SHT31;68030;51.980;5.646;2023-05-07T02:24:39;18.5;65.3
78696;SHT31;68030;51.980;5.646;2023-05-07T02:27:09;18.5;65.4
78696;SHT31;68030;51.980;5.646;2023-05-07T02:29:39;18.5;65.5
78696;SHT31;68030;51.980;5.646;2023-05-07T02:32:10;18.5;65.5
78696;SHT31;68030;51.980;5.646;2023-05-07T02:34:40;18.5;65.5
78696;SHT31;68030;51.980;5.646;2023-05-07T02:37:09;18.5;65.5
78696;SHT31;68030;51.980;5.646;2023-05-07T02:39:39;18.5;65.5
78696;SHT31;68030;51.980;5.646;2023-05-07T02:42:08;18.5;65.1
78696;SHT31;68030;51.980;5.646;2023-05-07T02:44:38;18.5;65.2
78696;SHT31;68030;51.980;5.646;2023-05-07T02:47:07;18.5;65.5
78696;SHT31;68030;51.980;5.646;2023-05-07T02:49:38;18.5;65.1
78696;SHT31;68030;51.980;5.646;2023-05-07T02:52:08;18.5;65.3
78696;SHT31;68030;51.980;5.646;2023-05-07T02:54:37;18.4;65.9
78696;SHT31;68030;51.980;5.646;2023-05-07T02:57:07;18.4;66.1
78696;SHT31;68030;51.980;5.646;2023-05-07T02:59:36;18.4;66.1
78696;SHT31;68030;51.980;5.646;2023-05-07T03:02:06;18.4;65.8
78696;SHT31;68030;51.980;5.646;2023-05-07T03:04:37;18.4;65.5
78696;SHT31;68030;51.980;5.646;2023-05-07T03:07:07;18.4;65.4
78696;SHT31;68030;51.980;5.646;2023-05-07T03:09:36;18.4;65.3
78696;SHT31;68030;51.980;5.646;2023-05-07T03:12:06;18.4;65.4
78696;SHT31;68030;51.980;5.646;2023-05-07T03:14:36;18.4;65.4
78696;SHT31;68030;51.980;5.646;2023-05-07T03:17:05;18.3;65.6
78696;SHT31;68030;51.980;5.646;2023-05-07T03:19:35;18.3;65.5
78696;SHT31;68030;51.980;5.646;2023-05-07T03:22:04;18.3;65.6
78696;SHT31;68030;51.980;5.646;2023-05-07T03:24:34;18.3;65.2
78696;SHT31;68030;51.980;5.646;2023-05-07T03:27:03;18.3;65.3
78696;SHT31;68030;51.980;5.646;2023-05-07T03:29:33;18.3;65.3
78696;SHT31;68030;51.980;5.646;2023-05-07T03:32:03;18.3;65.6
78696;SHT31;68030;51.980;5.646;2023-05-07T03:34:33;18.2;65.3
78696;SHT31;68030;51.980;5.646;2023-05-07T03:37:03;18.2;65.5
78696;SHT31;68030;51.980;5.646;2023-05-07T03:39:34;18.2;65.4
78696;SHT31;68030;51.980;5.646;2023-05-07T03:42:04;18.2;65.4
78696;SHT31;68030;51.980;5.646;2023-05-07T03:44:33;18.2;65.3
78696;SHT31;68030;51.980;5.646;2023-05-07T03:47:04;18.2;65.3
78696;SHT31;68030;51.980;5.646;2023-05-07T03:49:34;18.2;65.3
78696;SHT31;68030;51.980;5.646;2023-05-07T03:52:04;18.2;65.4
78696;SHT31;68030;51.980;5.646;2023-05-07T03:54:34;18.2;65.8
78696;SHT31;68030;51.980;5.646;2023-05-07T03:57:03;18.2;65.7
78696;SHT31;68030;51.980;5.646;2023-05-07T03:59:33;18.2;65.8
78696;SHT31;68030;51.980;5.646;2023-05-07T04:02:02;18.2;65.8
78696;SHT31;68030;51.980;5.646;2023-05-07T04:04:32;18.2;65.3
78696;SHT31;68030;51.980;5.646;2023-05-07T04:07:01;18.2;65.4
78696;SHT31;68030;51.980;5.646;2023-05-07T04:09:32;18.2;65.4
78696;SHT31;68030;51.980;5.646;2023-05-07T04:12:01;18.2;65.4
78696;SHT31;68030;51.980;5.646;2023-05-07T04:14:31;18.2;65.2
78696;SHT31;68030;51.980;5.646;2023-05-07T04:17:01;18.2;65.3
78696;SHT31;68030;51.980;5.646;2023-05-07T04:19:30;18.2;65.8
78696;SHT31;68030;51.980;5.646;2023-05-07T04:22:02;18.2;65.7
78696;SHT31;68030;51.980;5.646;2023-05-07T04:24:33;18.2;65.7
78696;SHT31;68030;51.980;5.646;2023-05-07T04:27:02;18.2;65.9
78696;SHT31;68030;51.980;5.646;2023-05-07T04:29:33;18.3;65.7
78696;SHT31;68030;51.980;5.646;2023-05-07T04:32:04;18.3;65.4
78696;SHT31;68030;51.980;5.646;2023-05-07T04:34:33;18.3;65.7
78696;SHT31;68030;51.980;5.646;2023-05-07T04:37:03;18.3;65.7
78696;SHT31;68030;51.980;5.646;2023-05-07T04:39:32;18.3;65.5
78696;SHT31;68030;51.980;5.646;2023-05-07T04:42:02;18.3;65.7
78696;SHT31;68030;51.980;5.646;2023-05-07T04:44:35;18.3;65.8
78696;SHT31;68030;51.980;5.646;2023-05-07T04:47:05;18.3;65.6
78696;SHT31;68030;51.980;5.646;2023-05-07T04:49:35;18.3;65.1
78696;SHT31;68030;51.980;5.646;2023-05-07T04:52:04;18.3;65.3
78696;SHT31;68030;51.980;5.646;2023-05-07T04:54:34;18.3;65.5
78696;SHT31;68030;51.980;5.646;2023-05-07T04:57:05;18.3;65.5
78696;SHT31;68030;51.980;5.646;2023-05-07T04:59:35;18.3;65.5
78696;SHT31;68030;51.980;5.646;2023-05-07T05:02:04;18.3;65.6
78696;SHT31;68030;51.980;5.646;2023-05-07T05:04:37;18.3;65.4
78696;SHT31;68030;51.980;5.646;2023-05-07T05:07:06;18.3;65.7
78696;SHT31;68030;51.980;5.646;2023-05-07T05:09:35;18.3;65.7
78696;SHT31;68030;51.980;5.646;2023-05-07T05:12:06;18.3;65.7
78696;SHT31;68030;51.980;5.646;2023-05-07T05:14:36;18.3;65.8
78696;SHT31;68030;51.980;5.646;2023-05-07T05:17:06;18.3;65.7
78696;SHT31;68030;51.980;5.646;2023-05-07T05:19:35;18.3;65.9
78696;SHT31;68030;51.980;5.646;2023-05-07T05:22:05;18.3;65.7
78696;SHT31;68030;51.980;5.646;2023-05-07T05:24:34;18.3;65.9
78696;SHT31;68030;51.980;5.646;2023-05-07T05:27:04;18.3;65.8
78696;SHT31;68030;51.980;5.646;2023-05-07T05:29:35;18.3;65.8
78696;SHT31;68030;51.980;5.646;2023-05-07T05:32:05;18.4;65.8
78696;SHT31;68030;51.980;5.646;2023-05-07T05:34:34;18.4;65.8
78696;SHT31;68030;51.980;5.646;2023-05-07T05:37:04;18.4;66.3
78696;SHT31;68030;51.980;5.646;2023-05-07T05:39:33;18.4;66.1
78696;SHT31;68030;51.980;5.646;2023-05-07T05:42:03;18.4;65.9
78696;SHT31;68030;51.980;5.646;2023-05-07T05:44:33;18.4;65.8
78696;SHT31;68030;51.980;5.646;2023-05-07T05:47:03;18.4;65.8
78696;SHT31;68030;51.980;5.646;2023-05-07T05:49:32;18.5;65.7
78696;SHT31;68030;51.980;5.646;2023-05-07T05:52:03;18.5;65.7
78696;SHT31;68030;51.980;5.646;2023-05-07T05:54:33;18.5;65.9
78696;SHT31;68030;51.980;5.646;2023-05-07T05:57:03;18.5;65.6
78696;SHT31;68030;51.980;5.646;2023-05-07T05:59:35;18.5;65.8
78696;SHT31;68030;51.980;5.646;2023-05-07T06:02:05;18.5;65.6
78696;SHT31;68030;51.980;5.646;2023-05-07T06:04:36;18.5;65.8
78696;SHT31;68030;51.980;5.646;2023-05-07T06:07:05;18.5;65.8
78696;SHT31;68030;51.980;5.646;2023-05-07T06:09:34;18.5;66.0
78696;SHT31;68030;51.980;5.646;2023-05-07T06:12:04;18.5;65.9
78696;SHT31;68030;51.980;5.646;2023-05-07T06:14:34;18.5;65.8
78696;SHT31;68030;51.980;5.646;2023-05-07T06:17:03;18.6;66.0
78696;SHT31;68030;51.980;5.646;2023-05-07T06:19:33;18.6;66.1
78696;SHT31;68030;51.980;5.646;2023-05-07T06:22:03;18.6;66.0
78696;SHT31;68030;51.980;5.646;2023-05-07T06:24:34;18.6;66.1
78696;SHT31;68030;51.980;5.646;2023-05-07T06:27:04;18.7;65.9
78696;SHT31;68030;51.980;5.646;2023-05-07T06:29:33;18.7;65.7
78696;SHT31;68030;51.980;5.646;2023-05-07T06:32:09;18.7;66.0
78696;SHT31;68030;51.980;5.646;2023-05-07T06:34:40;18.8;65.8
78696;SHT31;68030;51.980;5.646;2023-05-07T06:37:12;18.8;65.7
78696;SHT31;68030;51.980;5.646;2023-05-07T06:39:42;18.9;65.2
78696;SHT31;68030;51.980;5.646;2023-05-07T06:42:11;18.9;65.1
78696;SHT31;68030;51.980;5.646;2023-05-07T06:44:41;18.9;65.0
78696;SHT31;68030;51.980;5.646;2023-05-07T06:47:10;19.0;64.7
78696;SHT31;68030;51.980;5.646;2023-05-07T06:49:40;19.0;64.9
78696;SHT31;68030;51.980;5.646;2023-05-07T06:52:09;19.0;65.2
78696;SHT31;68030;51.980;5.646;2023-05-07T06:54:39;19.1;64.9
78696;SHT31;68030;51.980;5.646;2023-05-07T06:57:08;19.1;64.7
78696;SHT31;68030;51.980;5.646;2023-05-07T06:59:38;19.2;64.7
78696;SHT31;68030;51.980;5.646;2023-05-07T07:02:08;19.2;64.4
78696;SHT31;68030;51.980;5.646;2023-05-07T07:04:37;19.3;64.4
78696;SHT31;68030;51.980;5.646;2023-05-07T07:07:07;19.3;64.9
78696;SHT31;68030;51.980;5.646;2023-05-07T07:09:37;19.4;64.7
78696;SHT31;68030;51.980;5.646;2023-05-07T07:12:07;19.5;64.2
78696;SHT31;68030;51.980;5.646;2023-05-07T07:14:38;19.5;63.7
78696;SHT31;68030;51.980;5.646;2023-05-07T07:17:07;19.6;63.8
78696;SHT31;68030;51.980;5.646;2023-05-07T07:19:37;19.6;63.3
78696;SHT31;68030;51.980;5.646;2023-05-07T07:22:07;19.7;63.4
78696;SHT31;68030;51.980;5.646;2023-05-07T07:24:36;19.7;62.9
78696;SHT31;68030;51.980;5.646;2023-05-07T07:27:08;19.7;63.2
78696;SHT31;68030;51.980;5.646;2023-05-07T07:29:37;19.7;63.5
78696;SHT31;68030;51.980;5.646;2023-05-07T07:32:07;19.7;63.8
78696;SHT31;68030;51.980;5.646;2023-05-07T07:34:37;19.7;63.4
78696;SHT31;68030;51.980;5.646;2023-05-07T07:37:06;19.7;63.8
78696;SHT31;68030;51.980;5.646;2023-05-07T07:39:36;19.8;63.7
78696;SHT31;68030;51.980;5.646;2023-05-07T07:42:07;19.8;64.4
78696;SHT31;68030;51.980;5.646;2023-05-07T07:44:38;19.8;63.6
78696;SHT31;68030;51.980;5.646;2023-05-07T07:47:09;19.9;63.2
78696;SHT31;68030;51.980;5.646;2023-05-07T07:49:38;20.0;63.5
78696;SHT31;68030;51.980;5.646;2023-05-07T07:52:08;20.0;63.3
78696;SHT31;68030;51.980;5.646;2023-05-07T07:54:37;20.1;62.8
78696;SHT31;68030;51.980;5.646;2023-05-07T07:57:07;20.2;62.8
78696;SHT31;68030;51.980;5.646;2023-05-07T07:59:38;20.2;63.0
78696;SHT31;68030;51.980;5.646;2023-05-07T08:02:10;20.3;62.8
78696;SHT31;68030;51.980;5.646;2023-05-07T08:04:40;20.3;62.4
78696;SHT31;68030;51.980;5.646;2023-05-07T08:07:11;20.4;62.4
78696;SHT31;68030;51.980;5.646;2023-05-07T08:09:43;20.5;62.2
78696;SHT31;68030;51.980;5.646;2023-05-07T08:12:13;20.5;62.0
78696;SHT31;68030;51.980;5.646;2023-05-07T08:14:43;20.6;61.0
78696;SHT31;68030;51.980;5.646;2023-05-07T08:17:12;20.6;60.4
78696;SHT31;68030;51.980;5.646;2023-05-07T08:19:43;20.7;60.7
78696;SHT31;68030;51.980;5.646;2023-05-07T08:22:15;20.7;60.9
78696;SHT31;68030;51.980;5.646;2023-05-07T08:24:45;20.8;60.3
78696;SHT31;68030;51.980;5.646;2023-05-07T08:27:15;20.8;60.3
78696;SHT31;68030;51.980;5.646;2023-05-07T08:29:45;20.9;59.6
78696;SHT31;68030;51.980;5.646;2023-05-07T08:32:15;21.0;60.5
78696;SHT31;68030;51.980;5.646;2023-05-07T08:34:44;21.0;61.3
78696;SHT31;68030;51.980;5.646;2023-05-07T08:37:14;21.1;60.3
78696;SHT31;68030;51.980;5.646;2023-05-07T08:39:43;21.1;60.9
78696;SHT31;68030;51.980;5.646;2023-05-07T08:42:16;21.2;60.2
78696;SHT31;68030;51.980;5.646;2023-05-07T08:44:48;21.2;60.8
78696;SHT31;68030;51.980;5.646;2023-05-07T08:47:23;21.2;61.4
78696;SHT31;68030;51.980;5.646;2023-05-07T08:49:57;21.2;61.6
78696;SHT31;68030;51.980;5.646;2023-05-07T08:52:28;21.3;61.7
78696;SHT31;68030;51.980;5.646;2023-05-07T08:55:01;21.4;60.4
78696;SHT31;68030;51.980;5.646;2023-05-07T08:57:32;21.5;58.5
78696;SHT31;68030;51.980;5.646;2023-05-07T09:00:01;21.6;58.4
78696;SHT31;68030;51.980;5.646;2023-05-07T09:02:35;21.7;59.4
78696;SHT31;68030;51.980;5.646;2023-05-07T09:05:05;21.8;57.7
78696;SHT31;68030;51.980;5.646;2023-05-07T09:07:36;21.9;57.1
78696;SHT31;68030;51.980;5.646;2023-05-07T09:10:09;21.9;58.3
78696;SHT31;68030;51.980;5.646;2023-05-07T09:12:39;22.0;57.2
78696;SHT31;68030;51.980;5.646;2023-05-07T09:15:10;22.1;58.1
78696;SHT31;68030;51.980;5.646;2023-05-07T09:17:40;22.2;56.9
78696;SHT31;68030;51.980;5.646;2023-05-07T09:20:11;22.3;56.9
78696;SHT31;68030;51.980;5.646;2023-05-07T09:22:44;22.4;56.0
78696;SHT31;68030;51.980;5.646;2023-05-07T09:25:13;22.6;55.2
78696;SHT31;68030;51.980;5.646;2023-05-07T09:27:45;22.7;54.5
78696;SHT31;68030;51.980;5.646;2023-05-07T09:30:15;22.8;53.0
78696;SHT31;68030;51.980;5.646;2023-05-07T09:32:44;22.8;53.2
78696;SHT31;68030;51.980;5.646;2023-05-07T09:35:17;22.9;52.8
78696;SHT31;68030;51.980;5.646;2023-05-07T09:37:51;22.9;52.7
78696;SHT31;68030;51.980;5.646;2023-05-07T09:40:24;22.9;53.5
78696;SHT31;68030;51.980;5.646;2023-05-07T09:43:07;23.0;52.8
78696;SHT31;68030;51.980;5.646;2023-05-07T09:45:31;23.0;53.2
78696;SHT31;68030;51.980;5.646;2023-05-07T09:48:05;23.0;53.2
78696;SHT31;68030;51.980;5.646;2023-05-07T09:50:45;23.0;53.4
78696;SHT31;68030;51.980;5.646;2023-05-07T09:53:18;23.1;54.1
78696;SHT31;68030;51.980;5.646;2023-05-07T09:55:50;23.2;52.3
78696;SHT31;68030;51.980;5.646;2023-05-07T09:58:21;23.3;52.5
78696;SHT31;68030;51.980;5.646;2023-05-07T10:00:52;23.4;51.7
78696;SHT31;68030;51.980;5.646;2023-05-07T10:03:24;23.5;51.5
78696;SHT31;68030;51.980;5.646;2023-05-07T10:05:56;23.5;51.7
78696;SHT31;68030;51.980;5.646;2023-05-07T10:08:28;23.6;51.6
78696;SHT31;68030;51.980;5.646;2023-05-07T10:11:00;23.7;50.8
78696;SHT31;68030;51.980;5.646;2023-05-07T10:13:30;23.8;50.5
78696;SHT31;68030;51.980;5.646;2023-05-07T10:16:03;23.9;50.5
78696;SHT31;68030;51.980;5.646;2023-05-07T10:18:33;23.9;50.3
78696;SHT31;68030;51.980;5.646;2023-05-07T10:21:07;24.0;49.9
78696;SHT31;68030;51.980;5.646;2023-05-07T10:23:40;24.0;50.8
78696;SHT31;68030;51.980;5.646;2023-05-07T10:26:12;24.1;50.3
78696;SHT31;68030;51.980;5.646;2023-05-07T10:28:49;24.1;49.1
78696;SHT31;68030;51.980;5.646;2023-05-07T10:31:54;24.2;48.7
78696;SHT31;68030;51.980;5.646;2023-05-07T10:34:32;24.3;48.8
78696;SHT31;68030;51.980;5.646;2023-05-07T10:37:04;24.3;48.8
78696;SHT31;68030;51.980;5.646;2023-05-07T10:39:36;24.4;48.8
78696;SHT31;68030;51.980;5.646;2023-05-07T10:42:12;24.5;48.5
78696;SHT31;68030;51.980;5.646;2023-05-07T10:44:43;24.5;48.1
78696;SHT31;68030;51.980;5.646;2023-05-07T10:47:16;24.6;48.4
78696;SHT31;68030;51.980;5.646;2023-05-07T10:50:23;24.6;48.7
78696;SHT31;68030;51.980;5.646;2023-05-07T10:53:23;24.6;47.5
78696;SHT31;68030;51.980;5.646;2023-05-07T10:56:25;24.7;47.9
78696;SHT31;68030;51.980;5.646;2023-05-07T10:58:56;24.9;47.4
78696;SHT31;68030;51.980;5.646;2023-05-07T11:01:53;24.9;47.6
78696;SHT31;68030;51.980;5.646;2023-05-07T11:04:23;25.0;45.6
78696;SHT31;68030;51.980;5.646;2023-05-07T11:07:21;25.1;46.0
78696;SHT31;68030;51.980;5.646;2023-05-07T11:09:59;25.2;46.5
78696;SHT31;68030;51.980;5.646;2023-05-07T11:14:49;25.2;46.1
78696;SHT31;68030;51.980;5.646;2023-05-07T11:17:21;25.3;47.3
78696;SHT31;68030;51.980;5.646;2023-05-07T11:19:53;25.4;45.5
78696;SHT31;68030;51.980;5.646;2023-05-07T11:22:37;25.4;45.1
78696;SHT31;68030;51.980;5.646;2023-05-07T11:25:09;25.5;45.8
78696;SHT31;68030;51.980;5.646;2023-05-07T11:27:38;25.5;45.5
78696;SHT31;68030;51.980;5.646;2023-05-07T11:30:09;25.5;46.8
78696;SHT31;68030;51.980;5.646;2023-05-07T11:32:40;25.5;46.8
78696;SHT31;68030;51.980;5.646;2023-05-07T11:35:12;25.6;45.5
78696;SHT31;68030;51.980;5.646;2023-05-07T11:37:45;25.6;46.4
78696;SHT31;68030;51.980;5.646;2023-05-07T11:40:15;25.7;45.9
78696;SHT31;68030;51.980;5.646;2023-05-07T11:42:46;25.7;46.8
78696;SHT31;68030;51.980;5.646;2023-05-07T11:45:24;25.8;46.0
78696;SHT31;68030;51.980;5.646;2023-05-07T11:47:54;25.9;45.2
78696;SHT31;68030;51.980;5.646;2023-05-07T11:50:24;25.9;43.0
78696;SHT31;68030;51.980;5.646;2023-05-07T11:52:54;25.9;42.7
78696;SHT31;68030;51.980;5.646;2023-05-07T11:55:24;26.0;43.5
78696;SHT31;68030;51.980;5.646;2023-05-07T11:57:54;26.0;43.7
78696;SHT31;68030;51.980;5.646;2023-05-07T12:00:24;26.1;45.0
78696;SHT31;68030;51.980;5.646;2023-05-07T12:02:53;26.1;45.5
78696;SHT31;68030;51.980;5.646;2023-05-07T12:05:23;26.1;46.0
78696;SHT31;68030;51.980;5.646;2023-05-07T12:07:57;26.2;45.2
78696;SHT31;68030;51.980;5.646;2023-05-07T12:10:27;26.2;45.5
78696;SHT31;68030;51.980;5.646;2023-05-07T12:12:59;26.2;46.0
78696;SHT31;68030;51.980;5.646;2023-05-07T12:15:29;26.2;44.6
78696;SHT31;68030;51.980;5.646;2023-05-07T12:17:58;26.2;43.8
78696;SHT31;68030;51.980;5.646;2023-05-07T12:20:28;26.3;44.2
78696;SHT31;68030;51.980;5.646;2023-05-07T12:22:59;26.3;44.5
78696;SHT31;68030;51.980;5.646;2023-05-07T12:25:32;26.4;44.3
78696;SHT31;68030;51.980;5.646;2023-05-07T12:28:04;26.4;44.1
78696;SHT31;68030;51.980;5.646;2023-05-07T12:30:37;26.5;45.2
78696;SHT31;68030;51.980;5.646;2023-05-07T12:33:06;26.5;43.6
78696;SHT31;68030;51.980;5.646;2023-05-07T12:35:40;26.6;43.0
78696;SHT31;68030;51.980;5.646;2023-05-07T12:38:11;26.6;43.2
78696;SHT31;68030;51.980;5.646;2023-05-07T12:40:43;26.6;42.7
78696;SHT31;68030;51.980;5.646;2023-05-07T12:43:18;26.7;42.8
78696;SHT31;68030;51.980;5.646;2023-05-07T12:45:50;26.7;42.8
78696;SHT31;68030;51.980;5.646;2023-05-07T12:48:22;26.8;42.1
78696;SHT31;68030;51.980;5.646;2023-05-07T12:50:55;26.8;41.8
78696;SHT31;68030;51.980;5.646;2023-05-07T12:53:27;26.9;42.9
78696;SHT31;68030;51.980;5.646;2023-05-07T12:55:59;27.0;42.7
78696;SHT31;68030;51.980;5.646;2023-05-07T12:58:30;27.1;42.5
78696;SHT31;68030;51.980;5.646;2023-05-07T13:01:04;27.1;42.2
78696;SHT31;68030;51.980;5.646;2023-05-07T13:03:36;27.2;42.2
78696;SHT31;68030;51.980;5.646;2023-05-07T13:06:08;27.3;42.5
78696;SHT31;68030;51.980;5.646;2023-05-07T13:08:41;27.3;42.3
78696;SHT31;68030;51.980;5.646;2023-05-07T13:11:12;27.3;41.7
78696;SHT31;68030;51.980;5.646;2023-05-07T13:13:42;27.3;40.9
78696;SHT31;68030;51.980;5.646;2023-05-07T13:16:12;27.3;40.7
78696;SHT31;68030;51.980;5.646;2023-05-07T13:18:41;27.3;40.2
78696;SHT31;68030;51.980;5.646;2023-05-07T13:21:13;27.3;40.8
78696;SHT31;68030;51.980;5.646;2023-05-07T13:23:46;27.3;41.9
78696;SHT31;68030;51.980;5.646;2023-05-07T13:26:16;27.4;41.5
78696;SHT31;68030;51.980;5.646;2023-05-07T13:28:45;27.4;41.9
78696;SHT31;68030;51.980;5.646;2023-05-07T13:31:16;27.4;40.7
78696;SHT31;68030;51.980;5.646;2023-05-07T13:33:46;27.5;39.8
78696;SHT31;68030;51.980;5.646;2023-05-07T13:36:15;27.5;41.2
78696;SHT31;68030;51.980;5.646;2023-05-07T13:38:45;27.5;41.3
78696;SHT31;68030;51.980;5.646;2023-05-07T13:41:16;27.6;41.7
78696;SHT31;68030;51.980;5.646;2023-05-07T13:43:45;27.6;40.6
78696;SHT31;68030;51.980;5.646;2023-05-07T13:46:15;27.6;39.2
78696;SHT31;68030;51.980;5.646;2023-05-07T13:48:44;27.6;40.2
78696;SHT31;68030;51.980;5.646;2023-05-07T13:51:14;27.7;40.5
78696;SHT31;68030;51.980;5.646;2023-05-07T13:53:44;27.7;39.5
78696;SHT31;68030;51.980;5.646;2023-05-07T13:56:14;27.7;39.5
78696;SHT31;68030;51.980;5.646;2023-05-07T13:58:46;27.7;38.7
78696;SHT31;68030;51.980;5.646;2023-05-07T14:01:15;27.7;39.7
78696;SHT31;68030;51.980;5.646;2023-05-07T14:03:44;27.7;40.4
78696;SHT31;68030;51.980;5.646;2023-05-07T14:06:14;27.7;40.4
78696;SHT31;68030;51.980;5.646;2023-05-07T14:08:44;27.7;40.6
78696;SHT31;68030;51.980;5.646;2023-05-07T14:11:13;27.7;40.2
78696;SHT31;68030;51.980;5.646;2023-05-07T14:13:43;27.7;40.7
78696;SHT31;68030;51.980;5.646;2023-05-07T14:16:15;27.7;41.4
78696;SHT31;68030;51.980;5.646;2023-05-07T14:18:44;27.7;41.0
78696;SHT31;68030;51.980;5.646;2023-05-07T14:21:14;27.8;41.6
78696;SHT31;68030;51.980;5.646;2023-05-07T14:23:45;27.8;41.7
78696;SHT31;68030;51.980;5.646;2023-05-07T14:26:15;27.8;41.5
78696;SHT31;68030;51.980;5.646;2023-05-07T14:28:45;27.8;41.4
78696;SHT31;68030;51.980;5.646;2023-05-07T14:31:15;27.8;41.0
78696;SHT31;68030;51.980;5.646;2023-05-07T14:33:44;27.8;41.5
78696;SHT31;68030;51.980;5.646;2023-05-07T14:36:15;27.7;41.5
78696;SHT31;68030;51.980;5.646;2023-05-07T14:38:45;27.7;41.6
78696;SHT31;68030;51.980;5.646;2023-05-07T14:41:14;27.7;41.8
78696;SHT31;68030;51.980;5.646;2023-05-07T14:43:44;27.7;42.5
78696;SHT31;68030;51.980;5.646;2023-05-07T14:46:18;27.7;42.3
78696;SHT31;68030;51.980;5.646;2023-05-07T14:48:47;27.7;41.9
78696;SHT31;68030;51.980;5.646;2023-05-07T14:51:17;27.6;41.6
78696;SHT31;68030;51.980;5.646;2023-05-07T14:53:47;27.6;41.3
78696;SHT31;68030;51.980;5.646;2023-05-07T14:56:17;27.6;41.6
78696;SHT31;68030;51.980;5.646;2023-05-07T14:58:49;27.5;41.5
78696;SHT31;68030;51.980;5.646;2023-05-07T15:01:20;27.4;42.1
78696;SHT31;68030;51.980;5.646;2023-05-07T15:03:50;27.4;42.0
78696;SHT31;68030;51.980;5.646;2023-05-07T15:06:20;27.3;41.9
78696;SHT31;68030;51.980;5.646;2023-05-07T15:08:50;27.3;42.3
78696;SHT31;68030;51.980;5.646;2023-05-07T15:11:21;27.2;42.4
78696;SHT31;68030;51.980;5.646;2023-05-07T15:13:51;27.2;41.9
78696;SHT31;68030;51.980;5.646;2023-05-07T15:16:20;27.2;42.1
78696;SHT31;68030;51.980;5.646;2023-05-07T15:18:50;27.1;42.0
78696;SHT31;68030;51.980;5.646;2023-05-07T15:21:20;27.0;42.6
78696;SHT31;68030;51.980;5.646;2023-05-07T15:23:50;26.8;42.8
78696;SHT31;68030;51.980;5.646;2023-05-07T15:26:19;26.6;41.2
78696;SHT31;68030;51.980;5.646;2023-05-07T15:28:50;26.3;40.9
78696;SHT31;68030;51.980;5.646;2023-05-07T15:31:19;26.0;41.4
78696;SHT31;68030;51.980;5.646;2023-05-07T15:33:49;25.7;42.1
78696;SHT31;68030;51.980;5.646;2023-05-07T15:36:19;25.5;43.0
78696;SHT31;68030;51.980;5.646;2023-05-07T15:38:49;25.2;43.5
78696;SHT31;68030;51.980;5.646;2023-05-07T15:41:18;24.9;43.9
78696;SHT31;68030;51.980;5.646;2023-05-07T15:43:50;24.6;44.7
78696;SHT31;68030;51.980;5.646;2023-05-07T15:46:22;24.4;46.1
78696;SHT31;68030;51.980;5.646;2023-05-07T15:48:53;24.1;47.7
78696;SHT31;68030;51.980;5.646;2023-05-07T15:51:23;23.9;50.0
78696;SHT31;68030;51.980;5.646;2023-05-07T15:53:53;23.7;51.1
78696;SHT31;68030;51.980;5.646;2023-05-07T15:56:23;23.5;51.6
78696;SHT31;68030;51.980;5.646;2023-05-07T15:58:53;23.3;52.8
78696;SHT31;68030;51.980;5.646;2023-05-07T16:01:24;23.1;53.1
78696;SHT31;68030;51.980;5.646;2023-05-07T16:03:53;22.9;55.0
78696;SHT31;68030;51.980;5.646;2023-05-07T16:06:23;22.7;55.8
78696;SHT31;68030;51.980;5.646;2023-05-07T16:08:54;22.5;55.4
78696;SHT31;68030;51.980;5.646;2023-05-07T16:11:23;22.3;56.3
78696;SHT31;68030;51.980;5.646;2023-05-07T16:13:55;22.1;56.0
78696;SHT31;68030;51.980;5.646;2023-05-07T16:16:26;21.9;56.0
78696;SHT31;68030;51.980;5.646;2023-05-07T16:18:56;21.7;56.4
78696;SHT31;68030;51.980;5.646;2023-05-07T16:21:26;21.5;59.2
78696;SHT31;68030;51.980;5.646;2023-05-07T16:23:57;21.3;60.1
78696;SHT31;68030;51.980;5.646;2023-05-07T16:26:27;21.2;60.5
78696;SHT31;68030;51.980;5.646;2023-05-07T16:28:59;21.0;61.7